createdAt,value
2019-02-22T00:02:31.758Z,102838.95
2019-02-22T00:05:03.923Z,102834.73
2019-02-22T00:07:35.692Z,102833.95
2019-02-22T00:10:08.058Z,102835.63
2019-02-22T00:12:38.430Z,102836.39
2019-02-22T00:15:11.632Z,102848.42
2019-02-22T00:17:42.077Z,102849.19
2019-02-22T00:20:14.880Z,102848.69
2019-02-22T00:22:45.451Z,102858.53
2019-02-22T00:25:15.784Z,102857.55
2019-02-22T00:27:47.141Z,102858.06
2019-02-22T00:30:22.290Z,102855.00
2019-02-22T00:32:54.742Z,102858.33
2019-02-22T00:35:26.817Z,102864.25
2019-02-22T00:37:58.972Z,102861.69
2019-02-22T00:40:29.253Z,102861.69
2019-02-22T00:43:01.574Z,102858.92
2019-02-22T00:45:31.986Z,102862.64
2019-02-22T00:48:06.712Z,102863.45
2019-02-22T00:50:44.131Z,102862.17
2019-02-22T00:53:11.574Z,102868.56
2019-02-22T00:55:43.255Z,102865.59
2019-02-22T00:58:14.392Z,102868.06
2019-02-22T01:00:45.947Z,102866.69
2019-02-22T01:03:21.191Z,102870.11
2019-02-22T01:05:51.502Z,102876.51
2019-02-22T01:08:25.682Z,102870.62
2019-02-22T01:10:57.602Z,102876.51
2019-02-22T01:13:32.025Z,102873.48
2019-02-22T01:16:04.625Z,102881.16
2019-02-22T01:18:35.421Z,102878.98
2019-02-22T01:21:05.846Z,102879.88
2019-02-22T01:23:36.365Z,102885.47
2019-02-22T01:26:09.655Z,102874.75
2019-02-22T01:28:40.568Z,102879.88
2019-02-22T01:31:10.866Z,102878.59
2019-02-22T01:33:43.145Z,102884.98
2019-02-22T01:36:13.440Z,102882.43
2019-02-22T01:38:45.401Z,102887.05
2019-02-22T01:41:15.754Z,102890.11
2019-02-22T01:43:48.679Z,102889.30
2019-02-22T01:46:22.183Z,102888.11
2019-02-22T01:48:51.364Z,102892.16
2019-02-22T01:51:21.758Z,102896.89
2019-02-22T01:53:53.945Z,102897.66
2019-02-22T01:56:25.912Z,102900.22
2019-02-22T01:58:56.790Z,102904.19
2019-02-22T02:01:27.085Z,102915.70
2019-02-22T02:03:59.920Z,102910.58
2019-02-22T02:06:31.008Z,102909.47
2019-02-22T02:09:06.115Z,102909.09
2019-02-22T02:11:47.155Z,102913.99
2019-02-22T02:14:18.993Z,102912.72
2019-02-22T02:16:50.594Z,102911.14
2019-02-22T02:19:22.588Z,102914.98
2019-02-22T02:21:54.351Z,102911.95
2019-02-22T02:24:24.964Z,102921.37
2019-02-22T02:27:03.731Z,102929.86
2019-02-22T02:29:35.970Z,102928.58
2019-02-22T02:32:06.397Z,102923.33
2019-02-22T02:34:38.451Z,102905.81
2019-02-22T02:37:08.796Z,102910.03
2019-02-22T02:39:41.810Z,102916.73
2019-02-22T02:42:12.154Z,102920.95
2019-02-22T02:44:44.125Z,102918.69
2019-02-22T02:47:14.405Z,102918.17
2019-02-22T02:49:46.526Z,102925.59
2019-02-22T02:52:18.492Z,102923.80
2019-02-22T02:54:50.115Z,102919.19
2019-02-22T02:57:25.721Z,102923.03
2019-02-22T02:59:58.430Z,102919.06
2019-02-22T03:02:30.875Z,102922.52
2019-02-22T03:05:03.513Z,102925.47
2019-02-22T03:07:44.853Z,102919.96
2019-02-22T03:10:16.857Z,102922.23
2019-02-22T03:12:49.102Z,102914.55
2019-02-22T03:15:19.964Z,102920.17
2019-02-22T03:17:55.209Z,102929.13
2019-02-22T03:20:25.806Z,102930.29
2019-02-22T03:22:57.433Z,102933.86
2019-02-22T03:25:32.757Z,102938.98
2019-02-22T03:28:03.434Z,102940.64
2019-02-22T03:30:34.109Z,102943.71
2019-02-22T03:33:04.755Z,102944.48
2019-02-22T03:35:37.989Z,102945.77
2019-02-22T03:38:08.516Z,102941.41
2019-02-22T03:40:40.079Z,102947.42
2019-02-22T03:43:10.525Z,102950.66
2019-02-22T03:45:42.938Z,102953.73
2019-02-22T03:48:15.144Z,102957.83
2019-02-22T03:50:45.766Z,102954.80
2019-02-22T03:53:24.984Z,102961.19
2019-02-22T03:55:57.200Z,102969.64
2019-02-22T03:58:30.118Z,102969.25
2019-02-22T04:01:00.469Z,102978.98
2019-02-22T04:03:30.747Z,102980.25
2019-02-22T04:06:03.296Z,102993.94
2019-02-22T04:08:33.786Z,102989.12
2019-02-22T04:11:05.670Z,102991.67
2019-02-22T04:13:35.989Z,102994.62
2019-02-22T04:16:07.719Z,102995.89
2019-02-22T04:18:42.105Z,102999.83
2019-02-22T04:21:20.729Z,102995.98
2019-02-22T04:23:57.694Z,102998.55
2019-02-22T04:26:33.321Z,103004.94
2019-02-22T04:29:14.737Z,102998.16
2019-02-22T04:31:46.659Z,103008.52
2019-02-22T04:34:28.874Z,103005.58
2019-02-22T04:37:00.883Z,103005.96
2019-02-22T04:39:31.323Z,103011.56
2019-02-22T04:42:01.725Z,103017.70
2019-02-22T04:44:34.701Z,103010.50
2019-02-22T04:47:05.081Z,103013.56
2019-02-22T04:49:39.231Z,103013.18
2019-02-22T04:52:09.645Z,103012.80
2019-02-22T04:54:41.243Z,103018.77
2019-02-22T04:57:11.598Z,103015.73
2019-02-22T04:59:47.021Z,103016.22
2019-02-22T05:02:17.671Z,103017.63
2019-02-22T05:04:49.788Z,103023.51
2019-02-22T05:07:20.113Z,103024.31
2019-02-22T05:09:51.808Z,103020.18
2019-02-22T05:12:28.499Z,103027.47
2019-02-22T05:15:12.003Z,103030.41
2019-02-22T05:17:35.830Z,103028.15
2019-02-22T05:20:10.774Z,103031.48
2019-02-22T05:22:41.109Z,103030.07
2019-02-22T05:25:12.753Z,103037.66
2019-02-22T05:27:43.328Z,103034.48
2019-02-22T05:30:16.304Z,103035.64
2019-02-22T05:32:48.619Z,103040.54
2019-02-22T05:35:20.562Z,103050.68
2019-02-22T05:37:50.925Z,103048.89
2019-02-22T05:40:21.956Z,103064.37
2019-02-22T05:42:53.737Z,103067.69
2019-02-22T05:45:26.000Z,103063.86
2019-02-22T05:47:56.614Z,103068.20
2019-02-22T05:50:27.556Z,103071.23
2019-02-22T05:52:59.485Z,103079.94
2019-02-22T05:55:30.111Z,103073.16
2019-02-22T05:58:00.565Z,103076.58
2019-02-22T06:00:34.219Z,103077.86
2019-02-22T06:03:04.760Z,103076.58
2019-02-22T06:05:36.348Z,103080.41
2019-02-22T06:08:08.860Z,103090.39
2019-02-22T06:10:38.790Z,103090.87
2019-02-22T06:13:12.728Z,103095.98
2019-02-22T06:15:44.902Z,103097.02
2019-02-22T06:18:15.333Z,103096.50
2019-02-22T06:20:55.045Z,103100.43
2019-02-22T06:23:20.301Z,103101.33
2019-02-22T06:25:50.983Z,103097.48
2019-02-22T06:28:28.365Z,103100.05
2019-02-22T06:30:59.459Z,103094.93
2019-02-22T06:33:29.841Z,103102.98
2019-02-22T06:36:00.135Z,103105.45
2019-02-22T06:38:34.774Z,103112.14
2019-02-22T06:41:08.151Z,103115.69
2019-02-22T06:43:38.386Z,103123.36
2019-02-22T06:46:08.751Z,103129.09
2019-02-22T06:48:39.156Z,103128.32
2019-02-22T06:51:09.573Z,103122.02
2019-02-22T06:53:39.929Z,103123.52
2019-02-22T06:56:11.664Z,103119.91
2019-02-22T06:58:42.029Z,103126.02
2019-02-22T07:01:12.305Z,103131.64
2019-02-22T07:04:33.131Z,103137.53
2019-02-22T07:06:14.943Z,103136.83
2019-02-22T07:08:46.049Z,103142.23
2019-02-22T07:11:53.993Z,103145.05
2019-02-22T07:14:24.433Z,103147.61
2019-02-22T07:16:56.572Z,103148.41
2019-02-22T07:19:27.880Z,103148.41
2019-02-22T07:21:58.203Z,103158.45
2019-02-22T07:24:28.751Z,103164.59
2019-02-22T07:26:59.324Z,103168.81
2019-02-22T07:29:37.200Z,103169.42
2019-02-22T07:32:07.495Z,103169.36
2019-02-22T07:34:38.935Z,103167.34
2019-02-22T07:37:10.628Z,103171.15
2019-02-22T07:39:42.584Z,103180.94
2019-02-22T07:42:13.237Z,103184.10
2019-02-22T07:44:46.671Z,103180.73
2019-02-22T07:47:19.549Z,103190.21
2019-02-22T07:49:49.871Z,103187.81
2019-02-22T07:52:21.080Z,103199.17
2019-02-22T07:54:54.179Z,103206.18
2019-02-22T07:57:24.490Z,103211.43
2019-02-22T07:59:54.791Z,103213.98
2019-02-22T08:02:27.653Z,103227.02
2019-02-22T08:04:58.015Z,103221.09
2019-02-22T08:07:28.323Z,103211.80
2019-02-22T08:10:03.414Z,103216.31
2019-02-22T08:12:34.801Z,103225.42
2019-02-22T08:15:05.798Z,103228.69
2019-02-22T08:17:40.307Z,103239.15
2019-02-22T08:20:11.012Z,103249.17
2019-02-22T08:22:43.943Z,103253.83
2019-02-22T08:25:14.306Z,103265.28
2019-02-22T08:27:53.100Z,103265.72
2019-02-22T08:30:16.851Z,103264.08
2019-02-22T08:32:51.975Z,103273.92
2019-02-22T08:35:22.572Z,103274.69
2019-02-22T08:37:56.979Z,103282.00
2019-02-22T08:40:27.314Z,103285.22
2019-02-22T08:43:00.707Z,103288.08
2019-02-22T08:45:33.093Z,103292.38
2019-02-22T08:48:05.712Z,103292.60
2019-02-22T08:50:38.999Z,103298.13
2019-02-22T08:53:12.538Z,103301.42
2019-02-22T08:55:44.621Z,103302.48
2019-02-22T08:58:16.812Z,103310.02
2019-02-22T09:00:47.198Z,103310.42
2019-02-22T09:03:17.749Z,103305.02
2019-02-22T09:05:52.129Z,103309.79
2019-02-22T09:08:24.063Z,103313.05
2019-02-22T09:11:00.507Z,103303.98
2019-02-22T09:13:30.155Z,103301.69
2019-02-22T09:16:00.482Z,103301.05
2019-02-22T09:18:35.434Z,103300.02
2019-02-22T09:21:08.787Z,103300.48
2019-02-22T09:23:40.938Z,103304.78
2019-02-22T09:26:11.581Z,103314.37
2019-02-22T09:28:44.758Z,103313.55
2019-02-22T09:31:15.087Z,103309.91
2019-02-22T09:33:45.945Z,103311.45
2019-02-22T09:36:16.495Z,103304.51
2019-02-22T09:38:48.046Z,103306.16
2019-02-22T09:42:13.130Z,103313.10
2019-02-22T09:43:55.871Z,103318.44
2019-02-22T09:46:29.068Z,103319.33
2019-02-22T09:49:08.675Z,103323.41
2019-02-22T09:51:41.184Z,103323.41
2019-02-22T09:54:11.396Z,103331.05
2019-02-22T09:56:41.750Z,103337.39
2019-02-22T09:59:13.147Z,103340.05
2019-02-22T10:01:45.361Z,103337.00
2019-02-22T10:04:19.057Z,103334.22
2019-02-22T10:06:55.621Z,103331.89
2019-02-22T10:09:30.005Z,103337.00
2019-02-22T10:12:01.446Z,103341.75
2019-02-22T10:14:32.162Z,103341.72
2019-02-22T10:17:06.709Z,103340.15
2019-02-22T10:19:38.870Z,103346.14
2019-02-22T10:22:10.695Z,103336.52
2019-02-22T10:24:42.568Z,103337.06
2019-02-22T10:27:13.977Z,103346.66
2019-02-22T10:29:44.351Z,103341.91
2019-02-22T10:32:15.954Z,103335.95
2019-02-22T10:34:47.083Z,103320.38
2019-02-22T10:37:17.767Z,103320.38
2019-02-22T10:39:50.123Z,103332.08
2019-02-22T10:42:20.645Z,103330.05
2019-02-22T10:44:53.015Z,103336.64
2019-02-22T10:47:28.384Z,103336.62
2019-02-22T10:49:58.379Z,103346.80
2019-02-22T10:52:32.172Z,103346.80
2019-02-22T10:55:04.892Z,103340.72
2019-02-22T10:57:35.910Z,103348.12
2019-02-22T11:00:13.639Z,103348.73
2019-02-22T11:02:44.031Z,103347.00
2019-02-22T11:05:14.967Z,103352.78
2019-02-22T11:07:46.885Z,103345.25
2019-02-22T11:10:17.715Z,103348.34
2019-02-22T11:12:49.460Z,103353.62
2019-02-22T11:15:19.879Z,103357.74
2019-02-22T11:17:50.518Z,103354.17
2019-02-22T11:20:21.344Z,103351.28
2019-02-22T11:22:53.878Z,103354.36
2019-02-22T11:25:26.266Z,103350.69
2019-02-22T11:27:56.937Z,103351.87
2019-02-22T11:30:29.006Z,103346.52
2019-02-22T11:33:02.904Z,103346.52
2019-02-22T11:35:35.848Z,103352.92
2019-02-22T11:38:10.238Z,103356.33
2019-02-22T11:40:44.575Z,103360.37
2019-02-22T11:43:14.995Z,103355.59
2019-02-22T11:45:46.591Z,103347.59
2019-02-22T11:48:20.621Z,103354.49
2019-02-22T11:50:51.553Z,103356.24
2019-02-22T11:53:22.163Z,103362.29
2019-02-22T11:55:54.201Z,103360.42
2019-02-22T11:58:25.860Z,103362.78
2019-02-22T12:00:58.363Z,103360.50
2019-02-22T12:03:28.951Z,103358.81
2019-02-22T12:06:00.664Z,103353.08
2019-02-22T12:08:31.273Z,103354.21
2019-02-22T12:11:01.809Z,103360.92
2019-02-22T12:13:34.230Z,103358.94
2019-02-22T12:16:04.673Z,103357.02
2019-02-22T12:18:36.544Z,103356.09
2019-02-22T12:21:08.807Z,103354.63
2019-02-22T12:23:39.137Z,103349.46
2019-02-22T12:26:14.196Z,103354.86
2019-02-22T12:28:45.699Z,103357.38
2019-02-22T12:31:16.391Z,103355.44
2019-02-22T12:33:48.869Z,103353.02
2019-02-22T12:36:22.052Z,103356.80
2019-02-22T12:38:53.305Z,103358.81
2019-02-22T12:41:25.440Z,103357.22
2019-02-22T12:43:55.969Z,103368.50
2019-02-22T12:46:27.581Z,103371.91
2019-02-22T12:48:58.289Z,103363.81
2019-02-22T12:51:30.908Z,103363.81
2019-02-22T12:54:02.955Z,103369.41
2019-02-22T12:59:08.489Z,103380.25
2019-02-22T13:01:40.632Z,103382.98
2019-02-22T13:04:11.144Z,103380.49
2019-02-22T13:06:42.629Z,103376.73
2019-02-22T13:09:13.277Z,103375.72
2019-02-22T13:11:43.694Z,103367.27
2019-02-22T13:14:14.020Z,103369.92
2019-02-22T13:16:48.002Z,103364.41
2019-02-22T13:19:18.307Z,103368.66
2019-02-22T13:21:48.834Z,103362.72
2019-02-22T13:24:19.791Z,103357.38
2019-02-22T13:26:50.122Z,103360.12
2019-02-22T13:29:20.934Z,103360.92
2019-02-22T13:31:54.346Z,103359.95
2019-02-22T13:34:26.492Z,103373.67
2019-02-22T13:36:57.191Z,103367.94
2019-02-22T13:39:29.685Z,103373.93
2019-02-22T13:42:00.551Z,103371.23
2019-02-22T13:44:31.190Z,103358.79
2019-02-22T13:47:01.812Z,103367.92
2019-02-22T13:49:32.079Z,103361.52
2019-02-22T13:52:03.882Z,103358.95
2019-02-22T13:54:35.670Z,103367.69
2019-02-22T13:57:06.030Z,103364.31
2019-02-22T13:59:37.780Z,103364.88
2019-02-22T14:02:11.115Z,103360.61
2019-02-22T14:04:44.277Z,103361.56
2019-02-22T14:07:15.204Z,103360.43
2019-02-22T14:09:47.667Z,103372.68
2019-02-22T14:12:17.999Z,103369.47
2019-02-22T14:14:52.067Z,103374.30
2019-02-22T14:17:28.461Z,103368.64
2019-02-22T14:19:59.267Z,103369.92
2019-02-22T14:22:31.865Z,103365.65
2019-02-22T14:25:02.584Z,103369.53
2019-02-22T14:27:34.471Z,103362.63
2019-02-22T14:30:07.937Z,103368.34
2019-02-22T14:32:38.514Z,103366.16
2019-02-22T14:35:10.693Z,103372.09
2019-02-22T14:37:41.040Z,103382.52
2019-02-22T14:40:14.671Z,103384.03
2019-02-22T14:42:45.200Z,103383.11
2019-02-22T14:45:16.050Z,103383.25
2019-02-22T14:47:46.353Z,103381.81
2019-02-22T14:50:18.095Z,103383.28
2019-02-22T14:52:49.831Z,103386.58
2019-02-22T14:55:20.179Z,103386.47
2019-02-22T14:57:51.013Z,103387.23
2019-02-22T15:00:23.054Z,103391.20
2019-02-22T15:02:53.920Z,103391.06
2019-02-22T15:05:28.140Z,103399.92
2019-02-22T15:08:01.661Z,103401.88
2019-02-22T15:10:32.297Z,103399.80
2019-02-22T15:13:06.334Z,103396.97
2019-02-22T15:16:00.517Z,103401.05
2019-02-22T15:18:26.749Z,103404.64
2019-02-22T15:21:00.706Z,103402.97
2019-02-22T15:23:31.076Z,103406.70
2019-02-22T15:26:01.976Z,103399.23
2019-02-22T15:28:32.316Z,103400.77
2019-02-22T15:31:05.579Z,103391.91
2019-02-22T15:33:36.007Z,103398.20
2019-02-22T15:36:08.600Z,103401.97
2019-02-22T15:38:40.065Z,103397.88
2019-02-22T15:41:10.793Z,103402.48
2019-02-22T15:43:41.343Z,103404.44
2019-02-22T15:46:13.471Z,103401.81
2019-02-22T15:48:43.918Z,103403.49
2019-02-22T15:51:18.747Z,103404.57
2019-02-22T15:53:49.062Z,103395.77
2019-02-22T15:56:19.758Z,103398.92
2019-02-22T15:58:51.227Z,103400.38
2019-02-22T16:01:24.269Z,103401.37
2019-02-22T16:04:03.170Z,103406.07
2019-02-22T16:06:33.586Z,103408.05
2019-02-22T16:09:05.554Z,103413.70
2019-02-22T16:11:37.481Z,103413.70
2019-02-22T16:14:12.515Z,103418.30
2019-02-22T16:16:44.761Z,103420.50
2019-02-22T16:19:16.538Z,103430.11
2019-02-22T16:21:48.734Z,103429.23
2019-02-22T16:24:20.158Z,103427.48
2019-02-22T16:27:02.098Z,103432.53
2019-02-22T16:29:33.690Z,103437.09
2019-02-22T16:32:05.254Z,103435.53
2019-02-22T16:34:43.118Z,103432.38
2019-02-22T16:37:08.117Z,103427.03
2019-02-22T16:39:38.650Z,103422.87
2019-02-22T16:42:09.205Z,103425.56
2019-02-22T16:44:39.903Z,103419.75
2019-02-22T16:47:10.605Z,103425.91
2019-02-22T16:49:42.630Z,103425.42
2019-02-22T16:52:15.186Z,103426.09
2019-02-22T16:54:47.284Z,103431.07
2019-02-22T16:57:18.102Z,103437.50
2019-02-22T16:59:51.562Z,103441.63
2019-02-22T17:02:25.576Z,103445.22
2019-02-22T17:04:56.349Z,103439.45
2019-02-22T17:07:28.585Z,103435.31
2019-02-22T17:09:59.241Z,103435.31
2019-02-22T17:12:29.902Z,103446.80
2019-02-22T17:15:00.315Z,103461.52
2019-02-22T17:17:30.922Z,103469.34
2019-02-22T17:20:02.401Z,103468.05
2019-02-22T17:22:34.385Z,103473.20
2019-02-22T17:25:08.232Z,103477.75
2019-02-22T17:27:42.541Z,103479.73
2019-02-22T17:30:17.323Z,103476.53
2019-02-22T17:32:47.852Z,103469.03
2019-02-22T17:35:20.967Z,103474.56
2019-02-22T17:37:54.807Z,103472.56
2019-02-22T17:40:25.299Z,103476.22
2019-02-22T17:42:56.213Z,103483.55
2019-02-22T17:45:28.255Z,103491.64
2019-02-22T17:47:58.728Z,103498.58
2019-02-22T17:50:29.237Z,103496.78
2019-02-22T17:53:00.025Z,103492.45
2019-02-22T17:55:30.556Z,103497.09
2019-02-22T17:58:01.219Z,103491.06
2019-02-22T18:00:32.943Z,103491.06
2019-02-22T18:03:03.747Z,103496.67
2019-02-22T18:05:35.497Z,103490.55
2019-02-22T18:08:09.877Z,103494.80
2019-02-22T18:10:40.564Z,103495.18
2019-02-22T18:13:15.826Z,103496.26
2019-02-22T18:15:52.439Z,103482.93
2019-02-22T18:18:21.869Z,103479.34
2019-02-22T18:20:52.482Z,103487.20
2019-02-22T18:23:28.942Z,103487.20
2019-02-22T18:25:57.790Z,103490.13
2019-02-22T18:28:30.504Z,103495.14
2019-02-22T18:31:02.564Z,103491.08
2019-02-22T18:33:33.829Z,103488.25
2019-02-22T18:36:04.411Z,103490.69
2019-02-22T18:38:35.117Z,103487.69
2019-02-22T18:41:05.768Z,103489.39
2019-02-22T18:43:38.383Z,103489.79
2019-02-22T18:46:09.035Z,103484.78
2019-02-22T18:48:43.788Z,103481.14
2019-02-22T18:51:14.227Z,103484.37
2019-02-22T18:53:49.727Z,103475.39
2019-02-22T18:56:20.219Z,103469.84
2019-02-22T18:58:51.902Z,103462.08
2019-02-22T19:01:27.126Z,103462.02
2019-02-22T19:03:58.158Z,103463.27
2019-02-22T19:06:28.726Z,103462.58
2019-02-22T19:09:03.021Z,103463.78
2019-02-22T19:11:35.013Z,103469.91
2019-02-22T19:14:07.536Z,103476.65
2019-02-22T19:16:39.125Z,103476.65
2019-02-22T19:19:14.218Z,103481.31
2019-02-22T19:21:44.713Z,103483.73
2019-02-22T19:24:20.025Z,103489.34
2019-02-22T19:26:52.017Z,103493.80
2019-02-22T19:29:23.778Z,103500.01
2019-02-22T19:31:54.256Z,103509.06
2019-02-22T19:34:26.948Z,103522.83
2019-02-22T19:37:08.976Z,103528.89
2019-02-22T19:39:38.045Z,103534.91
2019-02-22T19:42:11.108Z,103531.50
2019-02-22T19:44:45.307Z,103534.09
2019-02-22T19:47:15.649Z,103542.09
2019-02-22T19:49:46.049Z,103540.30
2019-02-22T19:52:18.285Z,103540.85
2019-02-22T19:54:48.875Z,103544.59
2019-02-22T19:57:21.449Z,103539.33
2019-02-22T19:59:59.053Z,103548.02
2019-02-22T20:02:29.467Z,103548.02
2019-02-22T20:05:01.376Z,103550.60
2019-02-22T20:07:32.312Z,103544.38
2019-02-22T20:10:04.941Z,103547.83
2019-02-22T20:12:35.324Z,103552.13
2019-02-22T20:15:06.908Z,103554.21
2019-02-22T20:17:40.257Z,103549.50
2019-02-22T20:20:12.956Z,103554.38
2019-02-22T20:22:43.682Z,103551.28
2019-02-22T20:25:15.791Z,103551.32
2019-02-22T20:27:46.293Z,103549.28
2019-02-22T20:30:20.888Z,103552.55
2019-02-22T20:32:52.801Z,103543.98
2019-02-22T20:35:23.888Z,103538.71
2019-02-22T20:37:56.878Z,103544.23
2019-02-22T20:40:27.560Z,103539.30
2019-02-22T20:42:58.619Z,103539.30
2019-02-22T20:45:29.418Z,103547.21
2019-02-22T20:48:05.111Z,103547.73
2019-02-22T20:50:33.961Z,103549.66
2019-02-22T20:53:07.709Z,103551.07
2019-02-22T20:55:39.902Z,103562.05
2019-02-22T20:58:10.335Z,103548.30
2019-02-22T21:00:45.349Z,103553.65
2019-02-22T21:03:28.856Z,103554.30
2019-02-22T21:05:57.841Z,103558.27
2019-02-22T21:08:36.596Z,103566.20
2019-02-22T21:11:19.095Z,103567.48
2019-02-22T21:13:51.619Z,103571.53
2019-02-22T21:16:25.098Z,103559.03
2019-02-22T21:18:57.451Z,103562.47
2019-02-22T21:21:29.922Z,103571.04
2019-02-22T21:24:00.443Z,103578.97
2019-02-22T21:26:33.462Z,103579.73
2019-02-22T21:29:10.150Z,103577.70
2019-02-22T21:31:45.130Z,103583.94
2019-02-22T21:34:22.323Z,103582.27
2019-02-22T21:36:53.157Z,103578.42
2019-02-22T21:39:24.757Z,103580.50
2019-02-22T21:41:57.472Z,103578.17
2019-02-22T21:44:29.048Z,103577.91
2019-02-22T21:47:01.174Z,103578.44
2019-02-22T21:49:33.833Z,103584.30
2019-02-22T21:52:06.055Z,103583.51
2019-02-22T21:54:36.795Z,103585.30
2019-02-22T21:57:09.630Z,103590.90
2019-02-22T21:59:46.549Z,103592.96
2019-02-22T22:02:16.993Z,103589.35
2019-02-22T22:04:49.882Z,103592.70
2019-02-22T22:07:23.698Z,103594.98
2019-02-22T22:09:55.534Z,103594.45
2019-02-22T22:12:25.895Z,103602.97
2019-02-22T22:14:59.897Z,103608.96
2019-02-22T22:17:30.325Z,103607.42
2019-02-22T22:20:01.652Z,103602.57
2019-02-22T22:22:38.209Z,103601.78
2019-02-22T22:25:09.708Z,103605.86
2019-02-22T22:27:40.160Z,103608.12
2019-02-22T22:30:13.810Z,103608.70
2019-02-22T22:32:44.750Z,103606.05
2019-02-22T22:35:17.968Z,103608.97
2019-02-22T22:37:52.789Z,103605.24
2019-02-22T22:40:25.221Z,103603.45
2019-02-22T22:42:55.714Z,103602.98
2019-02-22T22:45:26.333Z,103602.38
2019-02-22T22:47:56.984Z,103597.27
2019-02-22T22:50:27.549Z,103600.83
2019-02-22T22:53:00.767Z,103604.38
2019-02-22T22:55:31.673Z,103607.20
2019-02-22T22:58:02.150Z,103608.94
2019-02-22T23:01:09.647Z,103611.09
2019-02-22T23:03:54.217Z,103604.77
2019-02-22T23:06:22.695Z,103604.77
2019-02-22T23:08:56.123Z,103612.41
2019-02-22T23:11:39.316Z,103609.70
2019-02-22T23:14:14.395Z,103607.53
2019-02-22T23:16:45.020Z,103602.68
2019-02-22T23:19:15.328Z,103612.78
2019-02-22T23:21:53.068Z,103619.55
2019-02-22T23:24:23.872Z,103628.72
2019-02-22T23:26:56.400Z,103631.24
2019-02-22T23:29:27.738Z,103628.60
2019-02-22T23:31:58.413Z,103622.86
2019-02-22T23:34:33.850Z,103628.29
2019-02-22T23:37:04.562Z,103631.73
2019-02-22T23:39:34.904Z,103627.97
2019-02-22T23:42:07.107Z,103628.93
2019-02-22T23:44:38.904Z,103626.38
2019-02-22T23:47:12.217Z,103621.47
2019-02-22T23:49:44.755Z,103625.57
2019-02-22T23:52:17.826Z,103618.70
2019-02-22T23:54:48.186Z,103616.50
2019-02-22T23:57:21.510Z,103611.83
2019-02-22T23:59:53.756Z,103615.60
